Terminal Aerodrome Forecast
Issued by NWS

Home | Current Version | Previous Version | Graphics & Text | Print | Product List | Glossary On
Versions: 1 2 3 4 5 6 7 8 9 10 11 12 13 14 15 16 17 18 19 20 21 22 23 24 25 26 27 28 29 30 31 32 33 34 35 36 37 38 39 40 41 42 43
000
FTUS43 KGRB 282000 AAA
TAFRHI
TAF AMD
KRHI 282039Z 2821/2918 15004KT 6SM -SN BR SCT017 OVC035
      TEMPO 2821/2824 1 1/2SM -SN OVC017
     FM290000 12005KT 6SM -SN BR SCT012 OVC025
      TEMPO 2900/2903 1SM -FZDZSN OVC012
     FM290300 14005KT 4SM BR OVC009
     FM290500 15004KT 2SM BR OVC005
     FM291600 16006KT 3SM BR BKN006 OVC015=

USA.gov is the U.S. government's official web portal to all federal, state and local government web resources and services.